Time;durP1;ratioP1;P1;durP2;ratioP2;P2;SDS_P1;SDS_P2;PMS_P1;PMS_P2;Temp;Humidity;BMP_temperature;BMP_pressure;BME280_temperature;BME280_humidity;BME280_pressure;Samples;Min_cycle;Max_cycle;Signal;HPM_P1;HPM_P2
2022/10/19 04:00:34;;;;;;;9.80;6.83;;;14.60;99.90;;;;;;5884819;23;20382;-74
2022/10/19 04:03:01;;;;;;;7.83;6.53;;;14.60;99.90;;;;;;4911776;29;20452;-74
2022/10/19 04:05:27;;;;;;;8.80;6.80;;;14.60;99.90;;;;;;4908984;29;20537;-74
2022/10/19 04:07:54;;;;;;;8.30;5.80;;;14.50;99.90;;;;;;4909771;29;20468;-71
2022/10/19 04:10:21;;;;;;;10.30;6.20;;;14.50;99.90;;;;;;4907643;29;20521;-74
2022/10/19 04:12:48;;;;;;;12.40;7.40;;;14.50;99.90;;;;;;4890982;29;20475;-74
2022/10/19 04:15:15;;;;;;;7.97;7.07;;;14.50;99.90;;;;;;4889833;29;20504;-74
2022/10/19 04:17:43;;;;;;;7.60;6.53;;;14.50;99.90;;;;;;4891127;29;20470;-74
2022/10/19 04:20:10;;;;;;;8.30;6.40;;;14.50;99.90;;;;;;4889315;29;20471;-73
2022/10/19 04:22:37;;;;;;;11.80;6.90;;;14.50;99.90;;;;;;4890800;29;20487;-74
2022/10/19 04:25:05;;;;;;;12.10;6.93;;;14.50;99.90;;;;;;4890134;29;20464;-75
2022/10/19 04:27:32;;;;;;;9.40;6.60;;;14.50;99.90;;;;;;4891252;29;20770;-76
2022/10/19 04:29:59;;;;;;;8.57;6.50;;;14.40;99.90;;;;;;4889272;29;20523;-75
2022/10/19 04:32:25;;;;;;;13.90;7.10;;;14.40;99.90;;;;;;4891224;29;20491;-70
2022/10/19 04:34:53;;;;;;;7.77;6.53;;;14.40;99.90;;;;;;4892333;29;20463;-70
2022/10/19 04:37:20;;;;;;;8.50;7.00;;;14.30;99.90;;;;;;4909691;29;20462;-70
2022/10/19 04:39:47;;;;;;;10.83;8.23;;;14.30;99.90;;;;;;4909620;29;20467;-70
2022/10/19 04:42:14;;;;;;;14.80;10.63;;;14.30;99.90;;;;;;4909476;29;20483;-70
2022/10/19 04:44:40;;;;;;;13.27;9.53;;;14.30;99.90;;;;;;4908867;29;20467;-70
2022/10/19 04:47:07;;;;;;;12.80;9.33;;;14.20;99.90;;;;;;4909608;29;20472;-70
2022/10/19 04:49:34;;;;;;;11.60;9.87;;;14.20;99.90;;;;;;4909106;29;20487;-70
2022/10/19 04:52:02;;;;;;;20.80;10.07;;;14.20;99.90;;;;;;4908620;29;20483;-71
2022/10/19 04:54:29;;;;;;;15.47;10.70;;;14.20;99.90;;;;;;4908440;29;20840;-70
2022/10/19 04:56:55;;;;;;;15.67;10.20;;;14.20;99.90;;;;;;4909120;29;20468;-71
2022/10/19 04:59:22;;;;;;;13.97;10.50;;;14.20;99.90;;;;;;4909028;29;20460;-76
2022/10/19 05:01:49;;;;;;;12.80;10.00;;;14.20;99.90;;;;;;4909057;29;20497;-77
2022/10/19 05:04:16;;;;;;;12.97;10.07;;;14.10;99.90;;;;;;4908661;29;20470;-76
2022/10/19 05:06:42;;;;;;;10.73;9.30;;;14.10;99.90;;;;;;4908963;29;20467;-75
2022/10/19 05:09:11;;;;;;;13.23;9.23;;;14.10;99.90;;;;;;4909190;29;20510;-76
2022/10/19 05:11:37;;;;;;;16.73;10.30;;;14.10;99.90;;;;;;4908834;29;20498;-76
2022/10/19 05:14:04;;;;;;;13.53;9.30;;;14.00;99.90;;;;;;4908234;29;20477;-76
2022/10/19 05:16:31;;;;;;;15.97;10.10;;;14.00;99.90;;;;;;4908789;29;20470;-76
2022/10/19 05:18:58;;;;;;;15.53;11.57;;;14.00;99.90;;;;;;4908719;29;20470;-74
2022/10/19 05:21:26;;;;;;;12.53;9.53;;;14.00;99.90;;;;;;4909280;29;20482;-75
2022/10/19 05:23:55;;;;;;;13.13;10.50;;;14.00;99.90;;;;;;4909167;29;20530;-77
2022/10/19 05:26:25;;;;;;;14.30;9.80;;;14.00;99.90;;;;;;4908698;29;20479;-77
2022/10/19 05:28:55;;;;;;;17.03;10.80;;;14.00;99.90;;;;;;4909115;29;20499;-77
2022/10/19 05:31:23;;;;;;;14.77;9.83;;;14.00;99.90;;;;;;4908808;29;20984;-76
2022/10/19 05:33:50;;;;;;;16.83;9.30;;;14.00;99.90;;;;;;4908746;29;20470;-76
2022/10/19 05:36:19;;;;;;;12.80;9.37;;;14.00;99.90;;;;;;4908089;29;20464;-74
2022/10/19 05:38:48;;;;;;;13.80;9.90;;;13.90;99.90;;;;;;4909552;29;20467;-77
2022/10/19 05:41:15;;;;;;;12.77;8.33;;;13.90;99.90;;;;;;4910003;29;20483;-77
2022/10/19 05:43:45;;;;;;;9.60;7.43;;;13.90;99.90;;;;;;4909376;29;20471;-76
2022/10/19 05:46:14;;;;;;;14.90;9.20;;;13.90;99.90;;;;;;4908483;29;20474;-76
2022/10/19 05:48:41;;;;;;;13.93;9.27;;;13.90;99.90;;;;;;4909364;29;20467;-77
2022/10/19 05:51:10;;;;;;;13.40;9.30;;;13.90;99.90;;;;;;4908000;29;20480;-77
2022/10/19 05:53:37;;;;;;;14.57;10.10;;;13.90;99.90;;;;;;4908200;29;20475;-77
2022/10/19 05:56:05;;;;;;;12.00;8.20;;;13.80;99.90;;;;;;4907837;29;20463;-74
2022/10/19 05:58:32;;;;;;;14.20;9.07;;;13.80;99.90;;;;;;4909022;29;20463;-76
2022/10/19 06:01:01;;;;;;;14.70;9.17;;;13.80;99.90;;;;;;4908705;29;20493;-77
2022/10/19 06:03:29;;;;;;;11.67;8.90;;;13.80;99.90;;;;;;4911403;29;20471;-77
2022/10/19 06:05:57;;;;;;;16.20;10.60;;;13.80;99.90;;;;;;4911339;29;20967;-77
2022/10/19 06:08:24;;;;;;;17.00;11.30;;;13.80;99.90;;;;;;4912210;29;20971;-75
2022/10/19 06:10:51;;;;;;;14.03;10.47;;;13.80;99.90;;;;;;4912636;29;21015;-77
2022/10/19 06:13:19;;;;;;;17.90;11.17;;;13.70;99.90;;;;;;4913496;29;20463;-77
2022/10/19 06:15:50;;;;;;;15.40;10.47;;;13.80;99.90;;;;;;4913552;29;20466;-76
2022/10/19 06:18:19;;;;;;;19.90;12.10;;;13.80;99.90;;;;;;4913538;29;20467;-77
2022/10/19 06:20:46;;;;;;;21.80;13.73;;;13.80;99.90;;;;;;4913570;29;20483;-77
2022/10/19 06:23:12;;;;;;;19.53;13.10;;;13.80;99.90;;;;;;4912127;29;20877;-76
2022/10/19 06:25:41;;;;;;;20.53;13.40;;;13.80;99.90;;;;;;4912754;29;20475;-75
2022/10/19 06:28:07;;;;;;;24.40;14.30;;;13.80;99.90;;;;;;4912378;29;20468;-73
2022/10/19 06:30:34;;;;;;;24.10;13.83;;;13.90;99.90;;;;;;4910470;29;20503;-75
2022/10/19 06:33:01;;;;;;;20.83;13.73;;;13.90;99.90;;;;;;4911233;29;20956;-74
2022/10/19 06:35:29;;;;;;;20.67;14.17;;;13.90;99.90;;;;;;4910825;29;20991;-75
2022/10/19 06:37:57;;;;;;;26.33;14.90;;;14.00;99.90;;;;;;4911422;29;21042;-75
2022/10/19 06:40:23;;;;;;;19.63;12.73;;;13.90;99.90;;;;;;4911076;29;20888;-75
2022/10/19 06:42:50;;;;;;;21.33;13.27;;;14.00;99.90;;;;;;4911559;29;20532;-76
2022/10/19 06:45:17;;;;;;;25.13;14.10;;;14.00;99.90;;;;;;4910855;29;20463;-76
2022/10/19 06:47:44;;;;;;;22.23;14.47;;;14.00;99.90;;;;;;4911548;29;20474;-76
2022/10/19 06:50:11;;;;;;;21.60;13.47;;;14.00;99.90;;;;;;4911347;29;20491;-74
2022/10/19 06:52:39;;;;;;;24.47;14.63;;;14.10;99.90;;;;;;4910977;29;20467;-74
2022/10/19 06:55:07;;;;;;;25.40;14.10;;;14.10;99.90;;;;;;4910564;29;20463;-75
2022/10/19 06:57:34;;;;;;;31.30;14.47;;;14.10;99.90;;;;;;4911251;29;21188;-76
2022/10/19 07:00:01;;;;;;;24.00;13.13;;;14.10;99.90;;;;;;4911262;29;20470;-76
2022/10/19 07:02:28;;;;;;;22.80;12.97;;;14.10;99.90;;;;;;4910785;29;20497;-73
2022/10/19 07:04:54;;;;;;;24.33;14.63;;;14.10;99.90;;;;;;4903571;29;20949;-75
2022/10/19 07:07:21;;;;;;;23.77;13.70;;;14.10;99.90;;;;;;4892193;29;20471;-75
2022/10/19 07:09:49;;;;;;;23.13;13.57;;;14.10;99.90;;;;;;4891956;29;21000;-75
2022/10/19 07:12:16;;;;;;;20.53;12.57;;;14.10;99.90;;;;;;4891143;29;20906;-75
2022/10/19 07:14:43;;;;;;;25.30;13.97;;;14.20;99.90;;;;;;4889661;29;20460;-74
2022/10/19 07:17:11;;;;;;;23.63;12.40;;;14.20;99.90;;;;;;4890476;29;20969;-75
2022/10/19 07:19:38;;;;;;;23.63;13.13;;;14.20;99.90;;;;;;4890660;29;20464;-75
2022/10/19 07:22:05;;;;;;;24.03;13.37;;;14.20;99.90;;;;;;4891668;29;20480;-73
2022/10/19 07:24:32;;;;;;;22.40;13.00;;;14.20;99.90;;;;;;4891633;29;20479;-75
2022/10/19 07:27:00;;;;;;;21.40;13.47;;;14.30;99.90;;;;;;4891664;29;20835;-76
2022/10/19 07:29:27;;;;;;;25.80;13.70;;;14.30;99.90;;;;;;4890541;29;20464;-76
2022/10/19 07:31:53;;;;;;;22.67;13.90;;;14.40;99.90;;;;;;4891817;29;20491;-75
2022/10/19 07:34:20;;;;;;;24.10;13.73;;;14.40;99.90;;;;;;4890949;29;20968;-75
2022/10/19 07:36:47;;;;;;;22.70;14.10;;;14.40;99.90;;;;;;4891800;29;20522;-75
2022/10/19 07:39:16;;;;;;;26.33;13.17;;;14.40;99.90;;;;;;4891719;29;20502;-75
2022/10/19 07:41:43;;;;;;;21.80;13.37;;;14.50;99.90;;;;;;4891530;29;21006;-74
2022/10/19 07:44:12;;;;;;;20.97;13.13;;;14.50;99.90;;;;;;4891096;29;20896;-74
2022/10/19 07:46:39;;;;;;;19.77;12.00;;;14.60;99.90;;;;;;4891999;29;20467;-76
2022/10/19 07:49:08;;;;;;;18.67;10.97;;;14.60;99.90;;;;;;4891123;29;20464;-75
2022/10/19 07:51:36;;;;;;;19.23;12.43;;;14.70;99.90;;;;;;4891550;29;20556;-76
2022/10/19 07:54:03;;;;;;;20.00;12.20;;;14.70;99.90;;;;;;4890815;29;20471;-75
2022/10/19 07:56:31;;;;;;;16.73;11.10;;;14.70;99.90;;;;;;4891670;29;20460;-74
2022/10/19 07:59:00;;;;;;;17.43;11.00;;;14.80;99.90;;;;;;4891426;29;20460;-76
2022/10/19 08:01:29;;;;;;;16.27;10.20;;;14.80;99.90;;;;;;4891125;29;20495;-75
2022/10/19 08:03:57;;;;;;;15.17;10.60;;;14.90;99.90;;;;;;4891267;29;20460;-75
2022/10/19 08:06:25;;;;;;;15.37;9.43;;;15.00;99.90;;;;;;4891332;29;20833;-76
2022/10/19 08:08:52;;;;;;;15.23;9.40;;;15.00;99.90;;;;;;4891257;29;20472;-76
2022/10/19 08:11:22;;;;;;;14.03;9.57;;;15.10;99.90;;;;;;4891382;29;20508;-75
2022/10/19 08:13:49;;;;;;;14.30;10.30;;;15.10;99.90;;;;;;4891486;29;20463;-76
2022/10/19 08:16:26;;;;;;;17.23;11.10;;;15.10;99.90;;;;;;4890167;29;21037;-75
2022/10/19 08:18:57;;;;;;;18.07;11.03;;;15.20;99.90;;;;;;4891269;29;20440;-76
2022/10/19 08:21:24;;;;;;;13.27;9.47;;;15.30;99.90;;;;;;4891083;29;21316;-76
2022/10/19 08:23:51;;;;;;;12.93;9.37;;;15.30;99.90;;;;;;4891206;29;20463;-75
2022/10/19 08:26:19;;;;;;;13.63;9.60;;;15.40;99.90;;;;;;4890129;29;20464;-76
2022/10/19 08:28:46;;;;;;;15.53;9.43;;;15.40;99.90;;;;;;4889997;29;20463;-74
2022/10/19 08:31:14;;;;;;;11.10;8.60;;;15.40;99.90;;;;;;4890985;29;20512;-76
2022/10/19 08:33:41;;;;;;;11.23;8.77;;;15.50;99.90;;;;;;4890792;29;20471;-75
2022/10/19 08:36:11;;;;;;;13.97;9.90;;;15.50;99.90;;;;;;4889812;29;20996;-75
2022/10/19 08:38:39;;;;;;;13.70;9.33;;;15.60;99.90;;;;;;4890851;29;20471;-74
2022/10/19 08:41:15;;;;;;;12.63;9.30;;;15.60;99.90;;;;;;4890655;29;20490;-73
2022/10/19 08:43:53;;;;;;;13.03;8.57;;;15.60;99.90;;;;;;4891190;29;20448;-74
2022/10/19 08:46:25;;;;;;;9.97;8.03;;;15.60;99.90;;;;;;4890531;29;20448;-76
2022/10/19 08:48:52;;;;;;;11.83;8.93;;;15.60;99.90;;;;;;4890895;29;20449;-76
2022/10/19 08:51:20;;;;;;;10.73;8.47;;;15.70;99.90;;;;;;4890583;29;20516;-76
2022/10/19 08:53:54;;;;;;;10.40;8.23;;;15.70;99.90;;;;;;4890680;29;20456;-75
2022/10/19 08:56:28;;;;;;;10.63;8.43;;;15.80;99.90;;;;;;4890339;29;20444;-75
2022/10/19 08:59:10;;;;;;;12.60;7.80;;;15.90;99.90;;;;;;4890586;29;20463;-74
2022/10/19 09:01:43;;;;;;;9.20;7.30;;;15.90;99.90;;;;;;4890383;29;20500;-75
2022/10/19 09:04:17;;;;;;;9.30;7.17;;;15.90;99.90;;;;;;4889616;29;20470;-74
2022/10/19 09:06:56;;;;;;;10.43;7.80;;;15.90;99.90;;;;;;4890854;29;20496;-76
2022/10/19 09:09:23;;;;;;;9.87;7.10;;;16.00;99.90;;;;;;4890767;29;20463;-76
2022/10/19 09:11:55;;;;;;;11.60;7.27;;;16.10;99.90;;;;;;4890486;29;21307;-76
2022/10/19 09:14:30;;;;;;;10.30;7.30;;;16.10;99.90;;;;;;4889549;29;20914;-76
2022/10/19 09:17:02;;;;;;;8.27;6.40;;;16.20;99.90;;;;;;4891006;29;20470;-76
2022/10/19 09:19:30;;;;;;;9.53;6.73;;;16.30;99.90;;;;;;4890554;29;20455;-76
2022/10/19 09:22:01;;;;;;;8.60;6.60;;;16.40;99.90;;;;;;4890444;29;20487;-76
2022/10/19 09:24:33;;;;;;;9.40;6.40;;;16.50;99.90;;;;;;4889328;29;21169;-75
2022/10/19 09:27:01;;;;;;;8.93;5.90;;;16.50;99.90;;;;;;4890041;29;20470;-76
2022/10/19 09:29:37;;;;;;;13.60;6.70;;;16.60;99.90;;;;;;4889363;29;20475;-75
2022/10/19 09:32:06;;;;;;;6.73;6.03;;;16.60;99.90;;;;;;4890403;29;20507;-76
2022/10/19 09:34:36;;;;;;;5.10;4.57;;;16.70;99.90;;;;;;4889609;29;20468;-74
2022/10/19 09:37:04;;;;;;;6.20;5.03;;;16.70;99.90;;;;;;4891201;29;20464;-76
2022/10/19 09:39:32;;;;;;;7.80;5.10;;;16.80;99.90;;;;;;4894062;29;20470;-76
2022/10/19 09:42:07;;;;;;;9.53;4.80;;;16.90;99.90;;;;;;4893833;29;20540;-77
2022/10/19 09:44:34;;;;;;;6.17;4.67;;;17.00;99.90;;;;;;4893195;29;20460;-74
2022/10/19 09:47:11;;;;;;;5.10;4.37;;;17.10;99.90;;;;;;4893692;29;20472;-76
2022/10/19 09:49:42;;;;;;;5.50;3.70;;;17.20;99.90;;;;;;4893792;29;20452;-75
2022/10/19 09:52:29;;;;;;;7.57;3.20;;;17.30;99.90;;;;;;4893365;29;21031;-75
2022/10/19 09:55:01;;;;;;;7.67;3.30;;;17.40;99.90;;;;;;4893417;29;20456;-76
2022/10/19 09:57:28;;;;;;;7.23;3.60;;;17.60;99.90;;;;;;4893813;29;20643;-75
2022/10/19 09:59:55;;;;;;;4.03;3.33;;;17.60;99.90;;;;;;4893810;29;20467;-76
2022/10/19 10:02:29;;;;;;;4.07;3.30;;;17.70;99.90;;;;;;4893181;29;20495;-77
2022/10/19 10:05:02;;;;;;;4.70;3.50;;;17.80;99.90;;;;;;4893192;29;20447;-75
2022/10/19 10:07:36;;;;;;;4.03;3.30;;;17.80;99.90;;;;;;4893515;29;20460;-75
2022/10/19 10:10:08;;;;;;;4.53;3.07;;;17.90;99.90;;;;;;4893410;29;20940;-70
2022/10/19 10:12:35;;;;;;;7.70;3.37;;;17.80;99.90;;;;;;4893520;29;20492;-70
2022/10/19 10:15:05;;;;;;;6.07;3.30;;;17.80;99.90;;;;;;4892835;29;20551;-70
2022/10/19 10:17:33;;;;;;;4.17;3.40;;;17.90;99.90;;;;;;4893245;29;20455;-69
2022/10/19 10:20:22;;;;;;;6.97;3.17;;;17.90;99.90;;;;;;4893617;29;20468;-70
2022/10/19 10:22:56;;;;;;;6.03;3.20;;;17.90;99.90;;;;;;4893397;29;20464;-70
2022/10/19 10:25:26;;;;;;;5.80;4.07;;;17.90;99.90;;;;;;4892215;29;20464;-75
2022/10/19 10:28:00;;;;;;;5.07;3.70;;;18.00;99.90;;;;;;4893483;29;21212;-76
2022/10/19 10:30:31;;;;;;;4.37;3.30;;;18.00;99.90;;;;;;4892886;29;20500;-76
2022/10/19 10:32:59;;;;;;;4.60;4.03;;;18.00;99.90;;;;;;4893884;29;20969;-76
2022/10/19 10:35:31;;;;;;;4.73;3.53;;;18.10;99.90;;;;;;4893828;29;20472;-77
2022/10/19 10:38:08;;;;;;;6.63;4.30;;;18.10;99.90;;;;;;4893676;29;20474;-77
2022/10/19 10:40:35;;;;;;;5.67;3.77;;;18.20;99.90;;;;;;4894197;29;20475;-76
2022/10/19 10:43:06;;;;;;;5.03;3.83;;;18.30;99.90;;;;;;4894001;29;20468;-76
2022/10/19 10:45:38;;;;;;;8.33;3.90;;;18.40;99.90;;;;;;4892875;29;20467;-76
2022/10/19 10:48:26;;;;;;;5.03;3.77;;;18.50;99.90;;;;;;4893095;29;20456;-75
2022/10/19 10:50:53;;;;;;;5.93;3.13;;;18.60;99.90;;;;;;4893713;29;20510;-76
2022/10/19 10:53:39;;;;;;;7.60;3.17;;;18.70;99.90;;;;;;4894156;29;20464;-76
2022/10/19 10:56:19;;;;;;;3.50;2.93;;;18.80;99.90;;;;;;4892699;29;20471;-76
2022/10/19 10:58:50;;;;;;;3.93;3.00;;;18.90;99.90;;;;;;4893117;29;20792;-76
2022/10/19 11:01:21;;;;;;;4.53;3.60;;;19.30;99.90;;;;;;4894139;29;20496;-76
2022/10/19 11:03:54;;;;;;;5.53;3.43;;;19.50;99.90;;;;;;4894790;29;20448;-76
2022/10/19 11:06:24;;;;;;;3.47;2.60;;;19.60;99.90;;;;;;4894153;29;20471;-76
2022/10/19 11:09:00;;;;;;;3.67;2.33;;;19.70;99.90;;;;;;4893217;29;20468;-77
2022/10/19 11:11:32;;;;;;;5.60;3.10;;;19.80;99.90;;;;;;4893366;29;20503;-76
2022/10/19 11:14:06;;;;;;;3.83;3.00;;;20.00;99.90;;;;;;4893449;29;20464;-77
2022/10/19 11:16:38;;;;;;;2.80;2.50;;;20.00;99.90;;;;;;4893642;29;21078;-77
2022/10/19 11:19:12;;;;;;;5.67;2.20;;;20.10;99.90;;;;;;4893949;29;20996;-76
2022/10/19 11:21:48;;;;;;;5.17;2.73;;;20.10;99.90;;;;;;4894222;29;21298;-76
2022/10/19 11:24:25;;;;;;;3.63;2.67;;;20.20;99.90;;;;;;4892573;29;20464;-77
2022/10/19 11:27:12;;;;;;;2.80;2.50;;;20.30;99.90;;;;;;4893332;29;20455;-77
2022/10/19 11:30:02;;;;;;;3.63;2.40;;;20.50;99.90;;;;;;4892251;29;20480;-76
2022/10/19 11:32:38;;;;;;;2.83;2.20;;;20.70;99.90;;;;;;4892143;29;20500;-76
2022/10/19 11:35:20;;;;;;;2.47;2.27;;;20.80;99.90;;;;;;4891800;29;20503;-76
2022/10/19 11:37:57;;;;;;;3.20;2.23;;;21.00;99.90;;;;;;4892354;29;20551;-76
2022/10/19 11:40:31;;;;;;;2.30;1.80;;;21.20;99.90;;;;;;4892385;29;20463;-76
2022/10/19 11:43:03;;;;;;;2.90;2.30;;;21.40;99.90;;;;;;4892149;29;20467;-76
2022/10/19 11:45:41;;;;;;;4.53;2.30;;;21.40;99.90;;;;;;4891330;29;21051;-74
2022/10/19 11:48:33;;;;;;;3.57;2.20;;;21.40;99.90;;;;;;4892759;29;20508;-75
2022/10/19 11:51:06;;;;;;;3.00;2.23;;;21.50;99.90;;;;;;4889841;29;20543;-77
2022/10/19 11:53:43;;;;;;;6.23;2.13;;;21.60;99.90;;;;;;4892980;29;20460;-76
2022/10/19 11:56:16;;;;;;;6.07;1.90;;;21.70;99.90;;;;;;4892943;29;20459;-77
2022/10/19 11:59:05;;;;;;;3.13;1.97;;;21.80;99.90;;;;;;4892832;29;20464;-73
2022/10/19 12:01:50;;;;;;;6.13;2.10;;;21.90;99.90;;;;;;4892038;29;21004;-74
2022/10/19 12:04:35;;;;;;;2.33;2.13;;;22.00;99.90;;;;;;4891511;29;20444;-75
2022/10/19 12:07:20;;;;;;;2.57;2.07;;;22.00;99.90;;;;;;4894091;29;20459;-77
2022/10/19 12:09:59;;;;;;;2.43;2.07;;;22.00;99.90;;;;;;4892262;29;20472;-73
2022/10/19 12:12:32;;;;;;;3.53;1.80;;;22.10;99.90;;;;;;4891435;29;20499;-75
2022/10/19 12:15:23;;;;;;;1.50;1.40;;;22.20;99.90;;;;;;4891000;29;20471;-77
2022/10/19 12:17:52;;;;;;;2.90;2.10;;;22.30;99.90;;;;;;4891312;29;20931;-75
2022/10/19 12:20:24;;;;;;;5.03;1.90;;;22.30;99.90;;;;;;4891877;29;20476;-77
2022/10/19 12:22:50;;;;;;;3.13;1.70;;;22.30;99.90;;;;;;4892700;29;20456;-77
2022/10/19 12:25:19;;;;;;;4.63;1.90;;;22.40;99.90;;;;;;4892670;29;20463;-77
2022/10/19 12:27:49;;;;;;;2.13;1.70;;;22.40;99.90;;;;;;4893681;29;20481;-77
2022/10/19 12:30:18;;;;;;;2.20;2.00;;;22.40;99.90;;;;;;4893137;29;20479;-76
2022/10/19 12:32:55;;;;;;;3.43;1.90;;;22.40;99.90;;;;;;4894217;29;20492;-77
2022/10/19 12:35:35;;;;;;;7.40;1.90;;;22.50;99.90;;;;;;4893030;29;20475;-77
2022/10/19 12:38:11;;;;;;;1.70;1.60;;;22.50;99.90;;;;;;4893354;29;20500;-76
2022/10/19 12:40:44;;;;;;;1.67;1.47;;;22.80;99.90;;;;;;4895169;29;20488;-76
2022/10/19 12:43:17;;;;;;;3.10;1.87;;;23.00;99.90;;;;;;4896473;29;20445;-75
2022/10/19 12:45:49;;;;;;;3.80;1.73;;;23.10;99.90;;;;;;4895236;29;20988;-75
2022/10/19 12:48:18;;;;;;;6.03;1.83;;;23.10;99.90;;;;;;4893781;29;20468;-75
2022/10/19 12:51:03;;;;;;;1.60;1.50;;;23.00;99.90;;;;;;4894207;29;20496;-74
2022/10/19 12:53:34;;;;;;;2.00;1.60;;;22.70;99.90;;;;;;4892575;29;20467;-76
2022/10/19 12:56:03;;;;;;;4.23;2.00;;;22.60;99.90;;;;;;4888895;29;20510;-76
2022/10/19 12:58:36;;;;;;;2.73;1.77;;;22.60;99.90;;;;;;4888120;29;20464;-75
2022/10/19 13:01:05;;;;;;;2.87;1.93;;;22.50;99.90;;;;;;4889194;29;20498;-75
2022/10/19 13:03:34;;;;;;;2.57;1.90;;;22.40;99.90;;;;;;4889499;29;20479;-76
2022/10/19 13:06:10;;;;;;;5.33;2.23;;;22.40;99.90;;;;;;4888984;29;20464;-76
2022/10/19 13:08:43;;;;;;;2.43;1.97;;;22.50;99.90;;;;;;4889495;29;21117;-76
2022/10/19 13:11:13;;;;;;;2.43;1.87;;;22.50;99.90;;;;;;4890338;29;20494;-74
2022/10/19 13:13:57;;;;;;;3.00;1.60;;;22.50;99.90;;;;;;4894053;29;20512;-76
2022/10/19 13:17:06;;;;;;;4.20;1.70;;;22.40;99.90;;;;;;4894151;29;20456;-76
2022/10/19 13:19:33;;;;;;;3.30;1.80;;;22.40;99.90;;;;;;4894435;29;20467;-76
2022/10/19 13:22:26;;;;;;;4.23;1.97;;;22.40;99.90;;;;;;4894207;29;20476;-75
2022/10/19 13:25:20;;;;;;;2.63;1.77;;;22.40;99.90;;;;;;4893685;29;21326;-73
2022/10/19 13:27:47;;;;;;;6.43;2.57;;;22.40;99.90;;;;;;4894042;29;20503;-76
2022/10/19 13:30:51;;;;;;;2.23;2.03;;;22.30;99.90;;;;;;4893861;29;20460;-74
2022/10/19 13:33:48;;;;;;;2.40;1.80;;;22.20;99.90;;;;;;4894240;29;20503;-74
2022/10/19 13:36:16;;;;;;;3.20;1.80;;;22.20;99.90;;;;;;4893468;29;20467;-73
2022/10/19 13:38:44;;;;;;;2.57;2.17;;;22.10;99.90;;;;;;4894147;29;20531;-75
2022/10/19 13:41:17;;;;;;;3.00;2.20;;;22.00;99.90;;;;;;4893908;29;21040;-76
2022/10/19 13:44:01;;;;;;;2.30;2.10;;;21.90;99.90;;;;;;4894111;29;20464;-76
2022/10/19 13:46:52;;;;;;;3.50;2.20;;;21.90;99.90;;;;;;4892712;29;21340;-75
2022/10/19 13:49:47;;;;;;;4.70;2.20;;;22.00;99.90;;;;;;4894118;29;20451;-75
2022/10/19 13:52:37;;;;;;;3.27;2.50;;;22.00;99.90;;;;;;4893665;29;20876;-76
2022/10/19 13:55:24;;;;;;;5.53;2.20;;;22.10;99.90;;;;;;4893363;29;20463;-76
2022/10/19 13:58:12;;;;;;;3.37;2.40;;;22.20;99.90;;;;;;4892768;29;20448;-76
2022/10/19 14:00:57;;;;;;;7.43;2.30;;;22.20;99.90;;;;;;4893642;29;20595;-76
2022/10/19 14:03:35;;;;;;;3.30;2.37;;;22.20;99.90;;;;;;4893698;29;20436;-76
2022/10/19 14:06:15;;;;;;;3.40;2.23;;;22.10;99.90;;;;;;4892924;29;20472;-76
2022/10/19 14:09:12;;;;;;;4.40;2.33;;;22.10;99.90;;;;;;4893443;29;20471;-73
2022/10/19 14:11:41;;;;;;;4.97;2.30;;;22.10;99.90;;;;;;4893610;29;20503;-73
2022/10/19 14:14:13;;;;;;;6.57;2.30;;;22.00;99.90;;;;;;4893003;29;20464;-72
2022/10/19 14:16:52;;;;;;;2.63;2.37;;;22.00;99.90;;;;;;4892794;29;20474;-75
2022/10/19 14:19:26;;;;;;;4.70;2.80;;;22.00;99.90;;;;;;4905221;29;20481;-75
2022/10/19 14:21:56;;;;;;;2.50;2.30;;;22.00;99.90;;;;;;4912224;29;20856;-76
2022/10/19 14:24:32;;;;;;;2.60;2.30;;;21.90;99.90;;;;;;4911844;29;20465;-76
2022/10/19 14:27:01;;;;;;;4.53;2.53;;;21.80;99.90;;;;;;4911855;29;20459;-74
2022/10/19 14:29:27;;;;;;;2.80;2.50;;;21.80;99.90;;;;;;4911955;29;20558;-76
2022/10/19 14:31:54;;;;;;;4.00;2.83;;;21.80;99.90;;;;;;4911860;29;21449;-74
2022/10/19 14:34:21;;;;;;;3.27;2.57;;;21.80;99.90;;;;;;4911394;29;20463;-76
2022/10/19 14:36:49;;;;;;;4.33;2.67;;;21.70;99.90;;;;;;4911760;29;20956;-75
2022/10/19 14:39:30;;;;;;;8.43;2.83;;;21.60;99.90;;;;;;4911856;29;20515;-75
2022/10/19 14:42:02;;;;;;;4.00;2.73;;;21.60;99.90;;;;;;4911868;29;20479;-76
2022/10/19 14:44:39;;;;;;;6.03;3.00;;;21.50;99.90;;;;;;4911476;29;20448;-76
2022/10/19 14:47:18;;;;;;;5.73;2.90;;;21.40;99.90;;;;;;4911005;29;20454;-76
2022/10/19 14:49:45;;;;;;;3.97;2.47;;;21.40;99.90;;;;;;4910475;29;20474;-74
2022/10/19 14:52:15;;;;;;;3.60;2.53;;;21.40;99.90;;;;;;4910892;29;20510;-76
2022/10/19 14:54:47;;;;;;;2.70;2.50;;;21.30;99.90;;;;;;4910408;29;20953;-75
2022/10/19 14:57:17;;;;;;;3.43;2.23;;;21.30;99.90;;;;;;4911261;29;20570;-76
2022/10/19 14:59:46;;;;;;;5.40;2.47;;;21.30;99.90;;;;;;4911019;29;20951;-76
2022/10/19 15:02:18;;;;;;;3.53;2.30;;;21.40;99.90;;;;;;4909582;29;20495;-74
2022/10/19 15:04:45;;;;;;;3.03;2.40;;;21.40;99.90;;;;;;4910785;29;20463;-75
2022/10/19 15:07:20;;;;;;;2.70;2.50;;;21.40;99.90;;;;;;4911497;29;20534;-75
2022/10/19 15:09:54;;;;;;;3.40;2.40;;;21.50;99.90;;;;;;4911261;29;21113;-74
2022/10/19 15:12:25;;;;;;;3.17;2.80;;;21.60;99.90;;;;;;4910963;29;20850;-75
2022/10/19 15:14:52;;;;;;;2.73;2.00;;;21.50;99.90;;;;;;4910345;29;20796;-75
2022/10/19 15:17:25;;;;;;;5.77;2.97;;;21.50;99.90;;;;;;4911258;29;20459;-75
2022/10/19 15:19:52;;;;;;;4.93;2.77;;;21.50;99.90;;;;;;4911478;29;20467;-75
2022/10/19 15:22:21;;;;;;;3.17;2.40;;;21.50;99.90;;;;;;4911078;29;20879;-75
2022/10/19 15:24:58;;;;;;;4.57;2.70;;;21.40;99.90;;;;;;4910261;29;20463;-75
2022/10/19 15:27:35;;;;;;;3.20;2.50;;;21.40;99.90;;;;;;4910508;29;20919;-74
2022/10/19 15:30:06;;;;;;;3.33;2.70;;;21.40;99.90;;;;;;4910702;29;20471;-72
2022/10/19 15:32:35;;;;;;;4.57;3.00;;;21.30;99.90;;;;;;4910406;29;20506;-75
2022/10/19 15:35:10;;;;;;;5.27;2.83;;;21.20;99.90;;;;;;4909504;29;20463;-74
2022/10/19 15:37:39;;;;;;;5.90;2.90;;;21.20;99.90;;;;;;4910635;29;20457;-75
2022/10/19 15:40:20;;;;;;;4.60;2.77;;;21.10;99.90;;;;;;4910866;29;20470;-75
2022/10/19 15:42:47;;;;;;;4.03;2.77;;;21.00;99.90;;;;;;4910889;29;20448;-75
2022/10/19 15:45:35;;;;;;;7.30;2.73;;;20.90;99.90;;;;;;4910194;29;20478;-76
2022/10/19 15:48:25;;;;;;;5.30;2.83;;;20.90;99.90;;;;;;4910712;29;20450;-74
2022/10/19 15:50:52;;;;;;;6.30;2.93;;;20.80;99.90;;;;;;4910355;29;21024;-75
2022/10/19 15:53:20;;;;;;;4.53;2.80;;;20.70;99.90;;;;;;4910188;29;20503;-74
2022/10/19 15:55:48;;;;;;;3.40;3.10;;;20.60;99.90;;;;;;4909509;29;20546;-75
2022/10/19 15:58:15;;;;;;;6.50;3.20;;;20.60;99.90;;;;;;4910296;29;20467;-72
2022/10/19 16:00:42;;;;;;;5.67;3.37;;;20.50;99.90;;;;;;4908306;29;21067;-75
2022/10/19 16:03:09;;;;;;;6.83;5.43;;;20.40;99.90;;;;;;4910453;29;20467;-74
2022/10/19 16:05:37;;;;;;;6.43;4.57;;;20.30;99.90;;;;;;4909500;29;20459;-76
2022/10/19 16:08:04;;;;;;;8.03;4.70;;;20.20;99.90;;;;;;4910351;29;20463;-75
2022/10/19 16:10:31;;;;;;;5.43;4.13;;;20.20;99.90;;;;;;4910070;29;20466;-75
2022/10/19 16:12:59;;;;;;;6.80;4.57;;;20.10;99.90;;;;;;4909986;29;21225;-75
2022/10/19 16:15:26;;;;;;;5.53;5.03;;;20.00;99.90;;;;;;4909292;29;20466;-75
2022/10/19 16:17:54;;;;;;;14.80;5.27;;;20.00;99.90;;;;;;4910049;29;20466;-75
2022/10/19 16:20:22;;;;;;;6.23;5.53;;;19.90;99.90;;;;;;4908396;29;20868;-72
2022/10/19 16:22:49;;;;;;;10.20;5.87;;;19.80;99.90;;;;;;4910356;29;20443;-74
2022/10/19 16:25:16;;;;;;;5.70;4.70;;;19.70;99.90;;;;;;4909255;29;20475;-74
2022/10/19 16:27:43;;;;;;;7.13;5.50;;;19.60;99.90;;;;;;4909584;29;21254;-75
2022/10/19 16:30:13;;;;;;;6.00;5.00;;;19.60;99.90;;;;;;4908816;29;20478;-72
2022/10/19 16:32:40;;;;;;;7.40;6.40;;;19.50;99.90;;;;;;4909865;29;20499;-75
2022/10/19 16:35:08;;;;;;;6.53;5.80;;;19.40;99.90;;;;;;4909321;29;20469;-75
2022/10/19 16:37:35;;;;;;;8.03;6.00;;;19.30;99.90;;;;;;4909665;29;20908;-75
2022/10/19 16:40:03;;;;;;;7.37;5.93;;;19.20;99.90;;;;;;4909458;29;20470;-75
2022/10/19 16:42:30;;;;;;;16.33;6.63;;;19.10;99.90;;;;;;4909261;29;20848;-75
2022/10/19 16:44:56;;;;;;;6.93;5.50;;;19.10;99.90;;;;;;4909079;29;20469;-73
2022/10/19 16:47:24;;;;;;;10.00;6.70;;;19.00;99.90;;;;;;4908770;29;20498;-74
2022/10/19 16:49:58;;;;;;;6.60;5.90;;;18.90;99.90;;;;;;4909575;29;20566;-75
2022/10/19 16:52:25;;;;;;;6.20;5.60;;;18.80;99.90;;;;;;4909454;29;20534;-74
2022/10/19 16:54:51;;;;;;;9.50;5.60;;;18.80;99.90;;;;;;4908422;29;20462;-75
2022/10/19 16:57:18;;;;;;;7.50;5.80;;;18.70;99.90;;;;;;4909533;29;20470;-72
2022/10/19 16:59:45;;;;;;;7.80;5.27;;;18.70;99.90;;;;;;4909337;29;20458;-74
2022/10/19 17:02:13;;;;;;;8.50;5.40;;;18.70;99.90;;;;;;4909202;29;20870;-74